createdAt,value
2023-05-11T00:01:17.562Z,100664.78
2023-05-11T00:03:44.634Z,100665.84
2023-05-11T00:06:11.817Z,100670.31
2023-05-11T00:08:38.768Z,100666.06
2023-05-11T00:11:08.633Z,100674.13
2023-05-11T00:13:35.792Z,100676.91
2023-05-11T00:16:03.860Z,100678.84
2023-05-11T00:18:31.388Z,100684.16
2023-05-11T00:20:58.478Z,100680.75
2023-05-11T00:23:25.476Z,100672.00
2023-05-11T00:25:52.410Z,100680.00
2023-05-11T00:28:19.386Z,100687.22
2023-05-11T00:30:46.489Z,100688.28
2023-05-11T00:33:13.554Z,100689.16
2023-05-11T00:35:40.795Z,100685.75
2023-05-11T00:38:07.773Z,100692.88
2023-05-11T00:40:34.861Z,100699.13
2023-05-11T00:43:01.845Z,100695.84
2023-05-11T00:45:28.823Z,100702.88
2023-05-11T00:47:55.868Z,100701.38
2023-05-11T00:50:22.917Z,100702.97
2023-05-11T00:52:50.375Z,100703.06
2023-05-11T00:55:21.255Z,100697.00
2023-05-11T00:57:48.477Z,100706.91
2023-05-11T01:00:15.787Z,100706.91
2023-05-11T01:02:43.076Z,100699.88
2023-05-11T01:05:10.637Z,100709.66
2023-05-11T01:07:50.317Z,100710.63
2023-05-11T01:10:20.524Z,100712.44
2023-05-11T01:12:50.196Z,100705.41
2023-05-11T01:15:37.220Z,100716.03
2023-05-11T01:18:07.220Z,100707.22
2023-05-11T01:20:34.993Z,100714.34
2023-05-11T01:23:29.396Z,100712.66
2023-05-11T01:26:22.381Z,100714.66
2023-05-11T01:29:13.624Z,100724.22
2023-05-11T01:31:46.925Z,100723.28
2023-05-11T01:34:18.207Z,100729.66
2023-05-11T01:36:52.628Z,100724.34
2023-05-11T01:39:25.537Z,100727.84
2023-05-11T01:41:54.807Z,100732.44
2023-05-11T01:44:26.238Z,100732.53
2023-05-11T01:46:54.248Z,100730.72
2023-05-11T01:49:22.254Z,100735.09
2023-05-11T01:51:51.856Z,100740.69
2023-05-11T01:54:21.619Z,100735.50
2023-05-11T01:56:50.595Z,100746.00
2023-05-11T01:59:19.324Z,100734.75
2023-05-11T02:01:46.709Z,100739.97
2023-05-11T02:04:16.237Z,100745.38
2023-05-11T02:06:44.383Z,100752.38
2023-05-11T02:09:13.571Z,100750.69
2023-05-11T02:11:43.185Z,100763.88
2023-05-11T02:14:12.171Z,100758.69
2023-05-11T02:16:39.700Z,100762.28
2023-05-11T02:19:08.422Z,100764.06
2023-05-11T02:21:37.138Z,100767.59
2023-05-11T02:24:06.773Z,100769.59
2023-05-11T02:26:33.746Z,100772.16
2023-05-11T02:29:00.835Z,100767.78
2023-05-11T02:31:30.728Z,100776.72
2023-05-11T02:34:04.856Z,100770.44
2023-05-11T02:36:35.923Z,100778.31
2023-05-11T02:39:07.497Z,100779.94
2023-05-11T02:41:41.552Z,100785.34
2023-05-11T02:44:12.610Z,100795.97
2023-05-11T02:46:40.780Z,100801.94
2023-05-11T02:49:09.791Z,100798.44
2023-05-11T02:51:38.069Z,100800.22
2023-05-11T02:54:11.363Z,100804.69
2023-05-11T02:56:39.338Z,100809.19
2023-05-11T02:59:06.905Z,100810.00
2023-05-11T03:01:34.237Z,100818.81
2023-05-11T03:04:05.091Z,100811.84
2023-05-11T03:06:33.646Z,100814.50
2023-05-11T03:09:02.136Z,100812.78
2023-05-11T03:11:29.475Z,100817.88
2023-05-11T03:13:56.896Z,100812.56
2023-05-11T03:16:25.025Z,100813.50
2023-05-11T03:18:52.518Z,100813.63
2023-05-11T03:21:21.688Z,100821.59
2023-05-11T03:23:49.881Z,100820.75
2023-05-11T03:26:22.402Z,100822.66
2023-05-11T03:28:52.725Z,100828.72
2023-05-11T03:31:19.908Z,100829.47
2023-05-11T03:33:46.855Z,100828.59
2023-05-11T03:36:15.164Z,100829.56
2023-05-11T03:38:43.092Z,100833.09
2023-05-11T03:41:11.592Z,100831.47
2023-05-11T03:43:41.227Z,100829.56
2023-05-11T03:46:09.259Z,100827.00
2023-05-11T03:48:36.528Z,100835.84
2023-05-11T03:51:05.225Z,100837.63
2023-05-11T03:53:32.426Z,100843.81
2023-05-11T03:55:59.493Z,100845.59
2023-05-11T03:58:26.667Z,100844.66
2023-05-11T04:00:53.618Z,100841.16
2023-05-11T04:03:20.919Z,100837.63
2023-05-11T04:05:47.985Z,100834.97
2023-05-11T04:08:15.173Z,100841.25
2023-05-11T04:10:42.246Z,100846.56
2023-05-11T04:13:09.239Z,100863.34
2023-05-11T04:15:37.876Z,100851.88
2023-05-11T04:18:04.964Z,100851.88
2023-05-11T04:20:31.997Z,100861.66
2023-05-11T04:22:58.992Z,100865.94
2023-05-11T04:25:26.488Z,100858.88
2023-05-11T04:27:53.561Z,100852.53
2023-05-11T04:30:22.031Z,100864.31
2023-05-11T04:32:49.132Z,100865.72
2023-05-11T04:35:16.432Z,100867.22
2023-05-11T04:37:43.620Z,100874.25
2023-05-11T04:40:11.390Z,100877.66
2023-05-11T04:42:38.384Z,100886.38
2023-05-11T04:45:05.768Z,100897.00
2023-05-11T04:47:32.739Z,100897.00
2023-05-11T04:49:59.908Z,100901.25
2023-05-11T04:52:27.119Z,100903.84
2023-05-11T04:54:54.117Z,100905.53
2023-05-11T04:57:21.264Z,100895.16
2023-05-11T04:59:48.397Z,100899.56
2023-05-11T05:02:15.339Z,100902.75
2023-05-11T05:04:42.327Z,100911.66
2023-05-11T05:07:09.664Z,100918.47
2023-05-11T05:09:36.601Z,100928.97
2023-05-11T05:12:03.605Z,100925.75
2023-05-11T05:14:32.056Z,100928.94
2023-05-11T05:17:01.191Z,100931.06
2023-05-11T05:19:28.368Z,100934.09
2023-05-11T05:21:55.338Z,100935.56
2023-05-11T05:24:22.274Z,100933.59
2023-05-11T05:26:49.418Z,100940.50
2023-05-11T05:29:16.510Z,100935.00
2023-05-11T05:31:43.485Z,100945.31
2023-05-11T05:34:10.640Z,100952.91
2023-05-11T05:36:37.670Z,100960.03
2023-05-11T05:39:09.275Z,100956.63
2023-05-11T05:41:37.297Z,100958.09
2023-05-11T05:44:04.380Z,100959.81
2023-05-11T05:46:31.574Z,100961.31
2023-05-11T05:48:58.773Z,100965.69
2023-05-11T05:51:25.890Z,100970.03
2023-05-11T05:53:52.846Z,100971.19
2023-05-11T05:56:19.889Z,100967.09
2023-05-11T05:58:46.878Z,100971.44
2023-05-11T06:01:14.048Z,100975.63
2023-05-11T06:03:41.175Z,100984.25
2023-05-11T06:06:08.424Z,100986.59
2023-05-11T06:08:35.414Z,100995.31
2023-05-11T06:11:02.398Z,100994.28
2023-05-11T06:13:29.822Z,101002.25
2023-05-11T06:15:56.899Z,101005.56
2023-05-11T06:18:23.975Z,101008.03
2023-05-11T06:20:50.917Z,101001.75
2023-05-11T06:23:17.977Z,101005.19
2023-05-11T06:25:45.239Z,101009.53
2023-05-11T06:28:12.244Z,101020.72
2023-05-11T06:30:39.786Z,101022.44
2023-05-11T06:33:06.794Z,101024.16
2023-05-11T06:35:34.025Z,101023.00
2023-05-11T06:38:01.013Z,101031.84
2023-05-11T06:40:28.182Z,101034.03
2023-05-11T06:42:55.276Z,101033.94
2023-05-11T06:45:22.341Z,101035.75
2023-05-11T06:47:50.000Z,101036.69
2023-05-11T06:50:19.446Z,101049.22
2023-05-11T06:52:47.933Z,101049.44
2023-05-11T06:55:15.075Z,101049.63
2023-05-11T06:57:42.482Z,101051.53
2023-05-11T07:00:10.038Z,101048.88
2023-05-11T07:02:37.428Z,101054.06
2023-05-11T07:05:04.824Z,101049.44
2023-05-11T07:07:32.098Z,101056.03
2023-05-11T07:09:59.114Z,101055.84
2023-05-11T07:12:26.753Z,101053.19
2023-05-11T07:14:53.790Z,101055.56
2023-05-11T07:17:21.094Z,101057.78
2023-05-11T07:19:48.346Z,101057.22
2023-05-11T07:22:15.358Z,101057.75
2023-05-11T07:24:42.698Z,101062.03
2023-05-11T07:27:09.834Z,101072.28
2023-05-11T07:29:37.336Z,101071.03
2023-05-11T07:32:04.892Z,101070.94
2023-05-11T07:34:32.048Z,101075.50
2023-05-11T07:36:59.294Z,101078.72
2023-05-11T07:39:26.405Z,101081.19
2023-05-11T07:41:53.434Z,101084.50
2023-05-11T07:44:20.806Z,101087.91
2023-05-11T07:46:47.927Z,101094.72
2023-05-11T07:49:18.833Z,101098.16
2023-05-11T07:51:47.896Z,101098.91
2023-05-11T07:54:15.056Z,101101.44
2023-05-11T07:56:42.742Z,101095.88
2023-05-11T07:59:10.054Z,101096.72
2023-05-11T08:01:37.260Z,101102.69
2023-05-11T08:04:04.450Z,101101.63
2023-05-11T08:06:31.685Z,101104.09
2023-05-11T08:08:58.766Z,101104.75
2023-05-11T08:11:26.588Z,101110.63
2023-05-11T08:13:53.562Z,101113.44
2023-05-11T08:16:20.693Z,101115.28
2023-05-11T08:18:48.147Z,101120.81
2023-05-11T08:21:15.164Z,101120.97
2023-05-11T08:23:43.906Z,101123.22
2023-05-11T08:26:12.101Z,101130.88
2023-05-11T08:28:39.384Z,101130.69
2023-05-11T08:31:06.703Z,101133.47
2023-05-11T08:33:38.080Z,101135.25
2023-05-11T08:36:07.289Z,101139.84
2023-05-11T08:38:35.758Z,101137.19
2023-05-11T08:41:03.598Z,101142.06
2023-05-11T08:43:32.753Z,101149.97
2023-05-11T08:46:04.126Z,101150.72
2023-05-11T08:48:33.940Z,101152.53
2023-05-11T08:51:01.391Z,101143.78
2023-05-11T08:53:28.811Z,101147.19
2023-05-11T08:55:59.737Z,101150.72
2023-05-11T08:58:28.283Z,101155.94
2023-05-11T09:00:55.975Z,101154.97
2023-05-11T09:03:24.043Z,101159.91
2023-05-11T09:05:52.602Z,101161.91
2023-05-11T09:08:21.589Z,101164.47
2023-05-11T09:10:50.067Z,101164.38
2023-05-11T09:13:17.364Z,101157.66
2023-05-11T09:15:44.442Z,101174.31
2023-05-11T09:18:11.773Z,101169.84
2023-05-11T09:20:43.771Z,101170.78
2023-05-11T09:23:10.956Z,101173.28
2023-05-11T09:25:40.183Z,101177.22
2023-05-11T09:28:07.242Z,101179.69
2023-05-11T09:30:34.445Z,101183.31
2023-05-11T09:33:03.018Z,101187.59
2023-05-11T09:35:34.869Z,101185.88
2023-05-11T09:38:08.747Z,101191.94
2023-05-11T09:40:38.451Z,101195.13
2023-05-11T09:43:31.851Z,101198.56
2023-05-11T09:46:07.719Z,101198.38
2023-05-11T09:48:35.698Z,101192.78
2023-05-11T09:51:07.775Z,101199.84
2023-05-11T09:53:46.406Z,101204.03
2023-05-11T09:56:14.349Z,101203.50
2023-05-11T09:58:50.412Z,101207.00
2023-05-11T10:01:20.063Z,101212.09
2023-05-11T10:03:52.571Z,101211.91
2023-05-11T10:06:20.446Z,101223.34
2023-05-11T10:08:48.519Z,101213.63
2023-05-11T10:11:15.848Z,101221.50
2023-05-11T10:13:46.209Z,101225.75
2023-05-11T10:16:16.868Z,101224.81
2023-05-11T10:18:45.193Z,101230.03
2023-05-11T10:21:15.779Z,101225.56
2023-05-11T10:23:43.618Z,101230.69
2023-05-11T10:26:11.533Z,101233.34
2023-05-11T10:28:39.016Z,101237.63
2023-05-11T10:31:07.298Z,101238.47
2023-05-11T10:33:35.074Z,101242.09
2023-05-11T10:36:03.468Z,101242.09
2023-05-11T10:38:30.478Z,101229.81
2023-05-11T10:41:08.073Z,101237.75
2023-05-11T10:43:50.457Z,101245.75
2023-05-11T10:46:42.906Z,101249.03
2023-05-11T10:49:34.262Z,101250.63
2023-05-11T10:52:17.048Z,101242.19
2023-05-11T10:54:53.039Z,101243.72
2023-05-11T10:57:42.492Z,101246.19
2023-05-11T11:00:19.089Z,101243.28
2023-05-11T11:02:46.664Z,101246.81
2023-05-11T11:05:18.216Z,101244.56
2023-05-11T11:08:04.528Z,101247.22
2023-05-11T11:10:34.609Z,101248.00
2023-05-11T11:13:10.482Z,101248.09
2023-05-11T11:15:56.456Z,101258.78
2023-05-11T11:18:31.402Z,101263.53
2023-05-11T11:20:59.388Z,101265.28
2023-05-11T11:23:45.439Z,101259.81
2023-05-11T11:26:17.718Z,101262.09
2023-05-11T11:29:02.953Z,101265.63
2023-05-11T11:31:31.211Z,101254.81
2023-05-11T11:34:01.520Z,101268.06
2023-05-11T11:36:56.641Z,101271.25
2023-05-11T11:39:28.181Z,101274.47
2023-05-11T11:42:12.339Z,101276.16
2023-05-11T11:44:41.573Z,101271.56
2023-05-11T11:47:16.432Z,101277.78
2023-05-11T11:49:49.367Z,101279.56
2023-05-11T11:52:31.507Z,101286.81
2023-05-11T11:55:03.199Z,101285.66
2023-05-11T11:57:30.509Z,101287.03
2023-05-11T11:59:58.335Z,101284.78
2023-05-11T12:02:28.064Z,101292.91
2023-05-11T12:05:22.989Z,101292.38
2023-05-11T12:07:52.541Z,101292.47
2023-05-11T12:10:22.024Z,101285.31
2023-05-11T12:12:51.773Z,101296.22
2023-05-11T12:15:30.821Z,101300.25
2023-05-11T12:17:58.317Z,101300.81
2023-05-11T12:20:26.585Z,101297.91
2023-05-11T12:22:54.005Z,101309.03
2023-05-11T12:25:22.254Z,101310.47
2023-05-11T12:28:02.564Z,101299.56
2023-05-11T12:30:31.904Z,101304.69
2023-05-11T12:33:04.806Z,101305.44
2023-05-11T12:35:36.525Z,101307.03
2023-05-11T12:38:04.015Z,101311.31
2023-05-11T12:40:31.662Z,101316.44
2023-05-11T12:43:00.967Z,101313.00
2023-05-11T12:45:29.628Z,101320.78
2023-05-11T12:47:58.932Z,101313.53
2023-05-11T12:50:26.307Z,101317.06
2023-05-11T12:52:53.682Z,101333.00
2023-05-11T12:55:31.808Z,101324.00
2023-05-11T12:58:36.327Z,101323.78
2023-05-11T13:01:03.638Z,101320.25
2023-05-11T13:03:34.710Z,101332.53
2023-05-11T13:06:10.779Z,101335.31
2023-05-11T13:08:46.502Z,101339.28
2023-05-11T13:11:27.772Z,101341.69
2023-05-11T13:13:58.183Z,101338.94
2023-05-11T13:16:32.585Z,101346.50
2023-05-11T13:19:05.243Z,101358.22
2023-05-11T13:21:33.972Z,101359.41
2023-05-11T13:24:05.243Z,101366.22
2023-05-11T13:26:33.345Z,101365.50
2023-05-11T13:29:09.415Z,101369.84
2023-05-11T13:31:49.033Z,101372.09
2023-05-11T13:34:17.148Z,101379.44
2023-05-11T13:36:45.227Z,101374.31
2023-05-11T13:39:13.979Z,101379.44
2023-05-11T13:41:41.336Z,101385.97
2023-05-11T13:44:08.825Z,101387.22
2023-05-11T13:46:36.828Z,101383.88
2023-05-11T13:49:05.394Z,101384.09
2023-05-11T13:51:34.021Z,101384.47
2023-05-11T13:54:02.972Z,101382.59
2023-05-11T13:56:30.574Z,101400.28
2023-05-11T13:58:59.971Z,101395.16
2023-05-11T14:01:28.113Z,101398.06
2023-05-11T14:03:56.944Z,101414.09
2023-05-11T14:06:26.356Z,101412.38
2023-05-11T14:08:54.625Z,101417.06
2023-05-11T14:11:21.956Z,101421.53
2023-05-11T14:13:49.315Z,101418.13
2023-05-11T14:16:16.584Z,101423.53
2023-05-11T14:18:43.905Z,101426.88
2023-05-11T14:21:11.245Z,101432.59
2023-05-11T14:23:43.156Z,101439.81
2023-05-11T14:26:14.634Z,101436.78
2023-05-11T14:28:41.790Z,101445.53
2023-05-11T14:31:09.364Z,101444.00
2023-05-11T14:33:36.584Z,101446.47
2023-05-11T14:36:04.294Z,101442.94
2023-05-11T14:38:33.195Z,101456.56
2023-05-11T14:41:00.522Z,101456.75
2023-05-11T14:43:27.932Z,101447.97
2023-05-11T14:45:55.411Z,101464.09
2023-05-11T14:48:23.785Z,101462.47
2023-05-11T14:50:50.881Z,101466.84
2023-05-11T14:53:18.387Z,101478.16
2023-05-11T14:55:45.685Z,101478.16
2023-05-11T14:58:12.815Z,101492.94
2023-05-11T15:00:40.925Z,101497.41
2023-05-11T15:03:08.995Z,101512.56
2023-05-11T15:05:36.481Z,101517.03
2023-05-11T15:08:03.746Z,101526.00
2023-05-11T15:10:31.097Z,101522.34
2023-05-11T15:12:58.762Z,101530.47
2023-05-11T15:15:26.211Z,101528.72
2023-05-11T15:17:53.510Z,101535.00
2023-05-11T15:20:20.879Z,101534.00
2023-05-11T15:22:48.055Z,101541.13
2023-05-11T15:25:15.225Z,101546.34
2023-05-11T15:27:42.473Z,101553.84
2023-05-11T15:30:10.347Z,101547.94
2023-05-11T15:32:37.555Z,101564.59
2023-05-11T15:35:05.088Z,101568.22
2023-05-11T15:37:32.255Z,101575.59
2023-05-11T15:40:01.099Z,101579.75
2023-05-11T15:42:29.192Z,101585.41
2023-05-11T15:44:56.969Z,101577.09
2023-05-11T15:47:24.991Z,101589.97
2023-05-11T15:49:53.987Z,101587.19
2023-05-11T15:52:21.718Z,101593.28
2023-05-11T15:54:49.174Z,101588.91
2023-05-11T15:57:17.013Z,101603.75
2023-05-11T15:59:44.486Z,101596.50
2023-05-11T16:02:13.137Z,101597.50
2023-05-11T16:04:41.503Z,101602.81
2023-05-11T16:07:09.803Z,101602.81
2023-05-11T16:09:37.575Z,101602.81
2023-05-11T16:12:09.503Z,101614.34
2023-05-11T16:14:36.887Z,101611.69
2023-05-11T16:17:04.755Z,101617.00
2023-05-11T16:19:35.078Z,101610.06
2023-05-11T16:22:02.582Z,101618.81
2023-05-11T16:24:33.481Z,101627.75
2023-05-11T16:27:03.175Z,101629.47
2023-05-11T16:29:30.607Z,101636.72
2023-05-11T16:31:57.936Z,101633.28
2023-05-11T16:34:25.280Z,101642.06
2023-05-11T16:36:55.332Z,101643.19
2023-05-11T16:39:24.984Z,101645.78
2023-05-11T16:41:52.486Z,101653.66
2023-05-11T16:44:19.836Z,101651.00
2023-05-11T16:46:47.935Z,101650.25
2023-05-11T16:49:15.558Z,101654.72
2023-05-11T16:51:44.351Z,101658.22
2023-05-11T16:54:13.593Z,101668.03
2023-05-11T16:56:41.182Z,101666.31
2023-05-11T16:59:10.722Z,101660.13
2023-05-11T17:01:38.285Z,101667.16
2023-05-11T17:04:05.676Z,101675.16
2023-05-11T17:06:33.991Z,101669.94
2023-05-11T17:09:01.132Z,101674.41
2023-05-11T17:11:28.386Z,101673.63
2023-05-11T17:13:55.697Z,101690.72
2023-05-11T17:16:23.921Z,101694.03
2023-05-11T17:18:52.265Z,101694.09
2023-05-11T17:21:20.941Z,101696.75
2023-05-11T17:23:49.703Z,101691.56
2023-05-11T17:26:19.095Z,101691.31
2023-05-11T17:28:47.951Z,101696.53
2023-05-11T17:31:16.345Z,101705.38
2023-05-11T17:33:44.828Z,101711.41
2023-05-11T17:36:13.270Z,101713.53
2023-05-11T17:38:40.722Z,101719.47
2023-05-11T17:41:08.352Z,101725.25
2023-05-11T17:43:38.313Z,101723.53
2023-05-11T17:46:06.615Z,101720.94
2023-05-11T17:48:34.464Z,101719.56
2023-05-11T17:51:02.654Z,101729.00
2023-05-11T17:53:30.202Z,101728.63
2023-05-11T17:56:01.185Z,101730.88
2023-05-11T17:58:28.691Z,101730.19
2023-05-11T18:00:56.973Z,101740.72
2023-05-11T18:03:25.071Z,101736.00
2023-05-11T18:05:54.290Z,101742.88
2023-05-11T18:08:21.956Z,101741.72
2023-05-11T18:10:49.810Z,101747.00
2023-05-11T18:13:17.561Z,101745.94
2023-05-11T18:15:45.614Z,101744.91
2023-05-11T18:18:13.403Z,101749.19
2023-05-11T18:20:40.841Z,101756.25
2023-05-11T18:23:08.192Z,101766.75
2023-05-11T18:25:35.419Z,101774.75
2023-05-11T18:28:05.010Z,101774.84
2023-05-11T18:30:34.987Z,101769.41
2023-05-11T18:33:02.998Z,101778.84
2023-05-11T18:35:30.871Z,101785.22
2023-05-11T18:37:59.910Z,101789.81
2023-05-11T18:40:27.701Z,101798.75
2023-05-11T18:42:56.825Z,101801.41
2023-05-11T18:45:24.140Z,101801.56
2023-05-11T18:47:52.253Z,101805.97
2023-05-11T18:50:21.010Z,101811.44
2023-05-11T18:52:48.439Z,101821.03
2023-05-11T18:55:15.775Z,101830.72
2023-05-11T18:57:43.604Z,101838.81
2023-05-11T19:00:12.015Z,101834.50
2023-05-11T19:02:39.010Z,101852.94
2023-05-11T19:05:07.195Z,101853.72
2023-05-11T19:07:34.712Z,101860.00
2023-05-11T19:10:01.951Z,101862.56
2023-05-11T19:12:29.337Z,101864.28
2023-05-11T19:14:57.279Z,101871.34
2023-05-11T19:17:24.521Z,101878.38
2023-05-11T19:19:52.622Z,101877.34
2023-05-11T19:22:21.758Z,101885.28
2023-05-11T19:24:48.975Z,101890.44
2023-05-11T19:27:16.317Z,101891.94
2023-05-11T19:29:43.682Z,101907.94
2023-05-11T19:32:11.096Z,101900.72
2023-05-11T19:34:38.616Z,101911.22
2023-05-11T19:37:06.459Z,101916.47
2023-05-11T19:39:33.726Z,101921.72
2023-05-11T19:42:02.893Z,101919.81
2023-05-11T19:44:33.495Z,101923.44
2023-05-11T19:47:00.758Z,101928.56
2023-05-11T19:49:31.262Z,101934.59
2023-05-11T19:51:59.803Z,101936.31
2023-05-11T19:54:28.142Z,101940.97
2023-05-11T19:56:57.975Z,101952.34
2023-05-11T19:59:28.013Z,101960.94
2023-05-11T20:01:55.324Z,101967.91
2023-05-11T20:04:22.519Z,101969.69
2023-05-11T20:06:49.880Z,101977.81
2023-05-11T20:09:18.677Z,101979.50
2023-05-11T20:11:46.349Z,101978.56
2023-05-11T20:14:14.004Z,101983.78
2023-05-11T20:16:41.651Z,101986.56
2023-05-11T20:19:09.998Z,101985.81
2023-05-11T20:21:37.710Z,101986.41
2023-05-11T20:24:05.315Z,101993.44
2023-05-11T20:26:32.620Z,101986.41
2023-05-11T20:28:59.763Z,101990.69
2023-05-11T20:31:27.886Z,101994.22
2023-05-11T20:36:27.501Z,102003.94
2023-05-11T20:38:54.785Z,102003.94
2023-05-11T20:41:23.374Z,102005.66
2023-05-11T20:43:52.569Z,102012.81
2023-05-11T20:46:19.911Z,102024.34
2023-05-11T20:48:51.513Z,102021.69
2023-05-11T20:51:23.853Z,102031.31
2023-05-11T20:53:52.093Z,102030.53
2023-05-11T20:56:19.218Z,102034.06
2023-05-11T20:58:48.156Z,102035.78
2023-05-11T21:01:16.178Z,102037.69
2023-05-11T21:03:43.615Z,102042.84
2023-05-11T21:06:10.897Z,102047.31
2023-05-11T21:08:38.019Z,102049.91
2023-05-11T21:11:05.277Z,102048.09
2023-05-11T21:13:32.854Z,102045.41
2023-05-11T21:16:00.266Z,102055.97
2023-05-11T21:18:32.472Z,102056.16
2023-05-11T21:21:00.210Z,102050.16
2023-05-11T21:23:28.640Z,102058.31
2023-05-11T21:25:57.100Z,102060.16
2023-05-11T21:28:28.169Z,102067.38
2023-05-11T21:30:55.272Z,102074.59
2023-05-11T21:33:22.357Z,102076.47
2023-05-11T21:35:49.801Z,102073.13
2023-05-11T21:38:18.295Z,102072.34
2023-05-11T21:40:51.876Z,102076.03
2023-05-11T21:43:22.493Z,102077.94
2023-05-11T21:45:50.864Z,102079.72
2023-05-11T21:48:18.117Z,102086.09
2023-05-11T21:50:45.246Z,102100.34
2023-05-11T21:53:12.563Z,102107.56
2023-05-11T21:55:39.750Z,102103.16
2023-05-11T21:58:06.931Z,102105.97
2023-05-11T22:00:35.398Z,102103.50
2023-05-11T22:03:03.036Z,102108.03
2023-05-11T22:05:30.387Z,102097.72
2023-05-11T22:08:06.678Z,102117.13
2023-05-11T22:10:40.721Z,102118.16
2023-05-11T22:13:07.790Z,102120.06
2023-05-11T22:15:34.829Z,102115.75
2023-05-11T22:18:01.837Z,102120.22
2023-05-11T22:20:28.965Z,102127.25
2023-05-11T22:22:55.969Z,102127.34
2023-05-11T22:25:23.238Z,102122.94
2023-05-11T22:27:50.638Z,102122.94
2023-05-11T22:30:18.641Z,102124.81
2023-05-11T22:32:46.076Z,102132.91
2023-05-11T22:35:13.118Z,102127.63
2023-05-11T22:37:40.404Z,102129.44
2023-05-11T22:40:07.973Z,102140.19
2023-05-11T22:42:35.192Z,102135.78
2023-05-11T22:45:02.831Z,102143.00
2023-05-11T22:47:29.950Z,102150.06
2023-05-11T22:49:57.113Z,102151.91
2023-05-11T22:52:25.403Z,102148.56
2023-05-11T22:54:58.096Z,102155.69
2023-05-11T22:57:26.899Z,102151.38
2023-05-11T22:59:53.992Z,102163.81
2023-05-11T23:02:21.458Z,102171.03
2023-05-11T23:04:52.834Z,102175.59
2023-05-11T23:07:20.252Z,102174.72
2023-05-11T23:09:48.042Z,102184.50
2023-05-11T23:12:15.050Z,102189.91
2023-05-11T23:14:42.200Z,102191.72
2023-05-11T23:17:09.504Z,102193.59
2023-05-11T23:19:36.967Z,102203.38
2023-05-11T23:22:04.277Z,102201.63
2023-05-11T23:24:31.574Z,102214.16
2023-05-11T23:26:59.342Z,102213.44
2023-05-11T23:29:28.574Z,102216.06
2023-05-11T23:31:56.508Z,102216.06
2023-05-11T23:34:23.532Z,102217.06
2023-05-11T23:36:50.658Z,102218.00
2023-05-11T23:39:32.951Z,102225.13
2023-05-11T23:42:01.090Z,102230.44
2023-05-11T23:44:28.551Z,102222.69
2023-05-11T23:46:55.519Z,102243.91
2023-05-11T23:49:22.791Z,102246.66
2023-05-11T23:51:50.686Z,102252.88
2023-05-11T23:54:17.636Z,102256.50
2023-05-11T23:56:45.126Z,102248.63
2023-05-11T23:59:12.249Z,102252.16
